createdAt,value
2017-07-28T00:01:28.597Z,2.80
2017-07-28T00:03:54.944Z,2.87
2017-07-28T00:06:21.348Z,2.83
2017-07-28T00:08:47.743Z,2.70
2017-07-28T00:11:14.125Z,3.10
2017-07-28T00:13:40.531Z,2.80
2017-07-28T00:16:06.983Z,2.87
2017-07-28T00:18:33.391Z,3.70
2017-07-28T00:20:59.771Z,3.57
2017-07-28T00:23:28.055Z,2.77
2017-07-28T00:25:55.147Z,3.37
2017-07-28T00:28:21.538Z,2.90
2017-07-28T00:30:47.909Z,3.73
2017-07-28T00:33:15.071Z,3.53
2017-07-28T00:35:41.491Z,2.93
2017-07-28T00:38:08.243Z,3.80
2017-07-28T00:40:34.618Z,2.93
2017-07-28T00:43:01.789Z,3.77
2017-07-28T00:45:28.174Z,4.00
2017-07-28T00:47:54.560Z,3.80
2017-07-28T00:50:20.938Z,2.90
2017-07-28T00:52:47.371Z,4.03
2017-07-28T00:55:13.776Z,3.50
2017-07-28T00:57:40.175Z,2.90
2017-07-28T01:00:06.625Z,4.20
2017-07-28T01:02:33.002Z,3.60
2017-07-28T01:04:59.399Z,3.30
2017-07-28T01:07:25.783Z,4.43
2017-07-28T01:09:52.212Z,3.70
2017-07-28T01:12:18.611Z,3.73
2017-07-28T01:14:44.980Z,4.20
2017-07-28T01:17:11.355Z,3.83
2017-07-28T01:19:37.777Z,3.43
2017-07-28T01:22:04.171Z,3.77
2017-07-28T01:24:30.611Z,3.13
2017-07-28T01:26:57.738Z,3.47
2017-07-28T01:29:24.931Z,3.13
2017-07-28T01:31:51.315Z,4.07
2017-07-28T01:34:17.831Z,3.80
2017-07-28T01:36:44.327Z,3.93
2017-07-28T01:39:10.741Z,4.53
2017-07-28T01:41:37.113Z,4.20
2017-07-28T01:44:03.591Z,4.80
2017-07-28T01:46:30.003Z,4.27
2017-07-28T01:48:56.423Z,4.53
2017-07-28T01:51:22.878Z,3.93
2017-07-28T01:53:49.331Z,4.17
2017-07-28T01:56:15.748Z,3.80
2017-07-28T01:58:42.239Z,3.83
2017-07-28T02:01:08.655Z,3.37
2017-07-28T02:03:35.064Z,3.70
2017-07-28T02:06:01.503Z,3.73
2017-07-28T02:08:27.932Z,3.97
2017-07-28T02:10:54.321Z,3.77
2017-07-28T02:13:20.711Z,4.10
2017-07-28T02:15:47.095Z,3.80
2017-07-28T02:18:13.572Z,4.00
2017-07-28T02:20:39.932Z,4.47
2017-07-28T02:23:06.321Z,4.50
2017-07-28T02:25:32.716Z,4.53
2017-07-28T02:27:59.151Z,4.23
2017-07-28T02:30:25.557Z,4.00
2017-07-28T02:32:51.987Z,3.90
2017-07-28T02:35:18.411Z,4.70
2017-07-28T02:37:44.859Z,5.23
2017-07-28T02:40:12.247Z,4.73
2017-07-28T02:42:38.640Z,4.23
2017-07-28T02:45:05.052Z,4.20
2017-07-28T02:47:31.436Z,4.27
2017-07-28T02:49:58.599Z,4.50
2017-07-28T02:52:24.963Z,3.87
2017-07-28T02:54:51.361Z,3.87
2017-07-28T02:57:17.759Z,3.67
2017-07-28T02:59:44.167Z,4.33
2017-07-28T03:02:10.531Z,3.77
2017-07-28T03:04:36.959Z,4.90
2017-07-28T03:07:03.364Z,3.90
2017-07-28T03:09:29.791Z,4.47
2017-07-28T03:11:56.183Z,4.93
2017-07-28T03:14:22.699Z,4.73
2017-07-28T03:16:49.115Z,3.90
2017-07-28T03:19:15.531Z,3.90
2017-07-28T03:21:41.916Z,5.23
2017-07-28T03:24:08.375Z,4.00
2017-07-28T03:26:34.784Z,3.87
2017-07-28T03:29:02.267Z,3.63
2017-07-28T03:31:28.651Z,5.43
2017-07-28T03:33:55.063Z,3.83
2017-07-28T03:36:21.492Z,4.67
2017-07-28T03:38:47.888Z,4.60
2017-07-28T03:41:14.339Z,4.27
2017-07-28T03:43:40.803Z,3.57
2017-07-28T03:46:07.183Z,4.83
2017-07-28T03:48:33.612Z,4.20
2017-07-28T03:51:00.715Z,4.03
2017-07-28T03:53:27.095Z,3.73
2017-07-28T03:55:53.492Z,3.73
2017-07-28T03:58:19.927Z,3.70
2017-07-28T04:00:46.325Z,3.67
2017-07-28T04:03:12.735Z,3.90
2017-07-28T04:05:39.082Z,3.80
2017-07-28T04:08:05.451Z,3.43
2017-07-28T04:10:31.907Z,4.30
2017-07-28T04:12:58.301Z,3.70
2017-07-28T04:15:25.434Z,3.83
2017-07-28T04:17:51.846Z,3.67
2017-07-28T04:20:18.247Z,3.83
2017-07-28T04:22:44.639Z,4.00
2017-07-28T04:25:11.064Z,4.20
2017-07-28T04:27:37.463Z,3.57
2017-07-28T04:30:04.631Z,3.10
2017-07-28T04:32:31.018Z,3.37
2017-07-28T04:34:57.475Z,3.60
2017-07-28T04:37:23.860Z,3.93
2017-07-28T04:39:50.250Z,3.23
2017-07-28T04:42:16.627Z,4.17
2017-07-28T04:44:43.043Z,3.10
2017-07-28T04:47:09.475Z,3.20
2017-07-28T04:49:35.897Z,3.27
2017-07-28T04:52:02.271Z,2.93
2017-07-28T04:54:28.658Z,2.80
2017-07-28T04:56:55.996Z,2.90
2017-07-28T04:59:22.379Z,3.07
2017-07-28T05:01:48.788Z,3.10
2017-07-28T05:04:15.215Z,3.30
2017-07-28T05:06:41.599Z,3.03
2017-07-28T05:09:09.132Z,4.10
2017-07-28T05:11:35.541Z,4.03
2017-07-28T05:14:01.936Z,3.37
2017-07-28T05:16:28.335Z,3.70
2017-07-28T05:18:54.739Z,4.00
2017-07-28T05:21:22.127Z,3.90
2017-07-28T05:23:48.579Z,3.50
2017-07-28T05:26:15.055Z,3.73
2017-07-28T05:28:41.483Z,4.53
2017-07-28T05:31:07.893Z,4.00
2017-07-28T05:33:34.335Z,3.30
2017-07-28T05:36:00.723Z,4.37
2017-07-28T05:38:27.161Z,4.20
2017-07-28T05:40:53.550Z,3.47
2017-07-28T05:43:19.915Z,3.37
2017-07-28T05:45:46.415Z,2.80
2017-07-28T05:48:12.805Z,4.27
2017-07-28T05:50:39.219Z,3.40
2017-07-28T05:53:05.622Z,3.10
2017-07-28T05:55:32.020Z,3.10
2017-07-28T05:57:58.387Z,4.00
2017-07-28T06:00:26.755Z,4.07
2017-07-28T06:02:53.534Z,3.27
2017-07-28T06:05:19.990Z,3.63
2017-07-28T06:07:46.415Z,3.10
2017-07-28T06:10:12.774Z,3.27
2017-07-28T06:12:40.303Z,2.73
2017-07-28T06:15:06.773Z,3.17
2017-07-28T06:17:33.186Z,3.47
2017-07-28T06:20:00.665Z,2.80
2017-07-28T06:22:27.083Z,3.07
2017-07-28T06:24:54.251Z,3.30
2017-07-28T06:27:20.607Z,2.57
2017-07-28T06:29:47.039Z,2.63
2017-07-28T06:32:13.434Z,2.50
2017-07-28T06:34:39.821Z,2.67
2017-07-28T06:37:06.268Z,2.17
2017-07-28T06:39:32.649Z,3.60
2017-07-28T06:41:59.071Z,2.77
2017-07-28T06:44:25.479Z,2.83
2017-07-28T06:46:51.837Z,3.10
2017-07-28T06:49:18.252Z,3.33
2017-07-28T06:51:44.626Z,3.50
2017-07-28T06:54:11.032Z,3.20
2017-07-28T06:56:37.411Z,2.90
2017-07-28T06:59:04.554Z,3.10
2017-07-28T07:01:31.679Z,3.27
2017-07-28T07:03:58.883Z,2.87
2017-07-28T07:06:25.266Z,2.40
2017-07-28T07:08:52.386Z,3.03
2017-07-28T07:11:19.503Z,2.40
2017-07-28T07:13:46.655Z,3.13
2017-07-28T07:16:13.069Z,3.07
2017-07-28T07:18:40.167Z,2.57
2017-07-28T07:21:06.567Z,2.10
2017-07-28T07:23:32.919Z,2.60
2017-07-28T07:25:59.295Z,2.77
2017-07-28T07:28:25.723Z,2.20
2017-07-28T07:30:52.079Z,2.23
2017-07-28T07:33:18.506Z,2.73
2017-07-28T07:35:44.972Z,2.43
2017-07-28T07:38:11.343Z,1.70
2017-07-28T07:40:37.788Z,2.00
2017-07-28T07:43:04.285Z,2.20
2017-07-28T07:45:31.401Z,1.90
2017-07-28T07:47:57.815Z,1.87
2017-07-28T07:50:24.259Z,2.03
2017-07-28T07:52:50.632Z,2.37
2017-07-28T07:55:18.032Z,2.73
2017-07-28T07:57:44.371Z,2.00
2017-07-28T08:00:10.775Z,2.10
2017-07-28T08:02:37.170Z,1.40
2017-07-28T08:05:03.593Z,2.40
2017-07-28T08:07:29.956Z,1.43
2017-07-28T08:09:56.372Z,2.53
2017-07-28T08:12:23.487Z,1.83
2017-07-28T08:14:49.881Z,2.10
2017-07-28T08:17:16.293Z,1.83
2017-07-28T08:19:42.726Z,2.23
2017-07-28T08:22:09.111Z,1.93
2017-07-28T08:24:35.603Z,2.43
2017-07-28T08:27:02.719Z,2.20
2017-07-28T08:29:29.114Z,2.17
2017-07-28T08:31:55.519Z,2.20
2017-07-28T08:34:21.951Z,2.73
2017-07-28T08:36:48.407Z,1.97
2017-07-28T08:39:15.551Z,1.80
2017-07-28T08:41:42.001Z,2.43
2017-07-28T08:44:08.363Z,2.17
2017-07-28T08:46:35.484Z,2.03
2017-07-28T08:49:01.891Z,2.50
2017-07-28T08:51:28.298Z,2.27
2017-07-28T08:53:54.699Z,2.87
2017-07-28T08:56:21.095Z,1.50
2017-07-28T08:58:47.479Z,1.50
2017-07-28T09:01:13.847Z,2.40
2017-07-28T09:03:40.235Z,1.70
2017-07-28T09:06:07.327Z,2.83
2017-07-28T09:08:33.721Z,2.47
2017-07-28T09:11:00.116Z,1.40
2017-07-28T09:13:26.483Z,2.23
2017-07-28T09:16:02.978Z,2.03
2017-07-28T09:18:29.250Z,1.70
2017-07-28T09:20:55.538Z,1.60
2017-07-28T09:23:21.798Z,1.53
2017-07-28T09:25:48.086Z,2.33
2017-07-28T09:28:14.342Z,1.97
2017-07-28T09:30:41.406Z,2.07
2017-07-28T09:33:07.691Z,1.53
2017-07-28T09:35:34.735Z,1.80
2017-07-28T09:38:01.730Z,1.90
2017-07-28T09:40:28.041Z,1.50
2017-07-28T09:42:54.298Z,2.60
2017-07-28T09:45:20.582Z,1.60
2017-07-28T09:47:47.614Z,2.13
2017-07-28T09:50:13.938Z,1.50
2017-07-28T09:52:40.252Z,1.80
2017-07-28T09:55:06.566Z,1.70
2017-07-28T09:57:32.819Z,1.60
2017-07-28T09:59:59.090Z,1.40
2017-07-28T10:02:26.098Z,1.63
2017-07-28T10:04:52.366Z,1.47
2017-07-28T10:07:18.631Z,1.97
2017-07-28T10:09:44.938Z,2.43
2017-07-28T10:12:11.230Z,2.10
2017-07-28T10:14:37.490Z,1.97
2017-07-28T10:17:04.507Z,1.90
2017-07-28T10:19:31.781Z,1.80
2017-07-28T10:21:58.058Z,1.73
2017-07-28T10:24:24.325Z,2.07
2017-07-28T10:26:50.602Z,1.80
2017-07-28T10:29:17.591Z,2.13
2017-07-28T10:31:43.914Z,1.40
2017-07-28T10:34:10.198Z,1.60
2017-07-28T10:36:36.466Z,1.83
2017-07-28T10:39:02.779Z,1.80
2017-07-28T10:41:29.043Z,2.23
2017-07-28T10:43:55.302Z,1.20
2017-07-28T10:46:21.582Z,2.17
2017-07-28T10:48:47.875Z,2.10
2017-07-28T10:51:15.138Z,1.90
2017-07-28T10:53:41.426Z,1.90
2017-07-28T10:56:07.738Z,1.57
2017-07-28T10:58:33.982Z,1.43
2017-07-28T11:01:00.314Z,1.83
2017-07-28T11:03:26.578Z,1.30
2017-07-28T11:05:52.866Z,1.70
2017-07-28T11:08:19.149Z,1.70
2017-07-28T11:10:45.434Z,1.67
2017-07-28T11:13:11.696Z,1.90
2017-07-28T11:15:37.994Z,2.10
2017-07-28T11:18:04.278Z,1.67
2017-07-28T11:20:30.564Z,1.77
2017-07-28T11:22:56.886Z,1.67
2017-07-28T11:25:23.193Z,1.80
2017-07-28T11:27:50.198Z,2.10
2017-07-28T11:30:17.254Z,1.70
2017-07-28T11:32:44.250Z,1.87
2017-07-28T11:35:10.538Z,2.73
2017-07-28T11:37:36.827Z,1.97
2017-07-28T11:40:03.142Z,1.90
2017-07-28T11:42:29.405Z,1.70
2017-07-28T11:44:55.710Z,2.20
2017-07-28T11:47:21.979Z,1.90
2017-07-28T11:49:48.218Z,2.67
2017-07-28T11:52:14.518Z,1.63
2017-07-28T11:54:40.783Z,2.00
2017-07-28T11:57:07.067Z,1.97
2017-07-28T11:59:33.342Z,2.00
2017-07-28T12:01:59.610Z,2.07
2017-07-28T12:04:26.206Z,1.70
2017-07-28T12:06:52.510Z,1.97
2017-07-28T12:09:18.826Z,1.53
2017-07-28T12:11:45.118Z,2.00
2017-07-28T12:14:11.425Z,2.73
2017-07-28T12:16:37.686Z,2.10
2017-07-28T12:19:03.951Z,1.90
2017-07-28T12:21:30.267Z,1.93
2017-07-28T12:23:57.251Z,1.60
2017-07-28T12:26:23.536Z,1.57
2017-07-28T12:28:49.811Z,1.67
2017-07-28T12:31:16.810Z,1.90
2017-07-28T12:33:43.084Z,1.73
2017-07-28T12:36:09.434Z,1.23
2017-07-28T12:38:35.693Z,1.90
2017-07-28T12:41:01.978Z,1.83
2017-07-28T12:43:28.998Z,3.13
2017-07-28T12:45:55.267Z,1.63
2017-07-28T12:48:21.534Z,1.57
2017-07-28T12:50:47.826Z,2.00
2017-07-28T12:53:14.094Z,1.70
2017-07-28T12:55:40.374Z,1.83
2017-07-28T12:58:06.654Z,1.50
2017-07-28T13:00:32.922Z,1.60
2017-07-28T13:02:59.189Z,1.60
2017-07-28T13:05:25.466Z,1.33
2017-07-28T13:07:52.458Z,0.93
2017-07-28T13:10:18.741Z,1.10
2017-07-28T13:12:45.017Z,1.60
2017-07-28T13:15:11.332Z,1.07
2017-07-28T13:17:38.326Z,1.17
2017-07-28T13:20:04.620Z,1.70
2017-07-28T13:22:30.898Z,1.50
2017-07-28T13:24:57.170Z,1.00
2017-07-28T13:27:24.241Z,1.07
2017-07-28T13:29:50.499Z,1.47
2017-07-28T13:32:16.774Z,0.87
2017-07-28T13:34:43.096Z,1.20
2017-07-28T13:37:09.375Z,1.40
2017-07-28T13:39:36.387Z,1.80
2017-07-28T13:42:03.479Z,0.97
2017-07-28T13:44:29.746Z,1.03
2017-07-28T13:46:56.011Z,1.67
2017-07-28T13:49:22.295Z,0.90
2017-07-28T13:51:49.330Z,1.10
2017-07-28T13:54:16.322Z,1.00
2017-07-28T13:56:42.606Z,0.87
2017-07-28T13:59:08.866Z,1.07
2017-07-28T14:01:35.305Z,0.97
2017-07-28T14:04:01.580Z,1.07
2017-07-28T14:06:27.862Z,1.20
2017-07-28T14:08:54.118Z,1.20
2017-07-28T14:11:24.346Z,0.93
2017-07-28T14:13:51.357Z,1.10
2017-07-28T14:16:17.622Z,0.77
2017-07-28T14:18:43.922Z,1.10
2017-07-28T14:21:10.173Z,0.50
2017-07-28T14:23:39.986Z,1.17
2017-07-28T14:26:06.288Z,1.47
2017-07-28T14:28:32.558Z,1.27
2017-07-28T14:30:58.826Z,0.97
2017-07-28T14:33:25.866Z,0.73
2017-07-28T14:35:52.110Z,0.80
2017-07-28T14:38:18.370Z,0.73
2017-07-28T14:40:44.642Z,1.03
2017-07-28T14:43:10.929Z,0.93
2017-07-28T14:45:37.183Z,0.80
2017-07-28T14:48:03.479Z,0.97
2017-07-28T14:50:29.761Z,0.97
2017-07-28T14:52:56.022Z,0.80
2017-07-28T14:55:22.326Z,1.03
2017-07-28T14:57:48.578Z,1.17
2017-07-28T15:00:14.845Z,0.93
2017-07-28T15:02:41.167Z,1.63
2017-07-28T15:05:07.418Z,0.80
2017-07-28T15:07:33.685Z,0.60
2017-07-28T15:09:59.970Z,1.10
2017-07-28T15:12:26.290Z,0.90
2017-07-28T15:14:52.550Z,0.80
2017-07-28T15:17:22.078Z,1.40
2017-07-28T15:19:48.346Z,0.70
2017-07-28T15:22:22.434Z,1.00
2017-07-28T15:24:48.719Z,0.80
2017-07-28T15:27:20.887Z,1.00
2017-07-28T15:29:48.973Z,1.10
2017-07-28T15:32:15.244Z,1.23
2017-07-28T15:34:41.583Z,1.10
2017-07-28T15:37:07.842Z,1.23
2017-07-28T15:39:34.146Z,1.20
2017-07-28T15:42:00.466Z,1.10
2017-07-28T15:44:26.714Z,1.30
2017-07-28T15:46:52.999Z,0.80
2017-07-28T15:49:19.286Z,0.90
2017-07-28T15:51:45.546Z,1.30
2017-07-28T15:54:12.603Z,1.20
2017-07-28T15:56:38.882Z,1.00
2017-07-28T15:59:05.138Z,0.97
2017-07-28T16:01:31.442Z,1.17
2017-07-28T16:03:57.722Z,1.13
2017-07-28T16:06:24.011Z,1.00
2017-07-28T16:08:50.294Z,1.10
2017-07-28T16:11:16.578Z,0.97
2017-07-28T16:13:42.866Z,1.00
2017-07-28T16:16:09.146Z,1.00
2017-07-28T16:18:35.414Z,0.97
2017-07-28T16:21:01.686Z,1.50
2017-07-28T16:23:27.961Z,2.40
2017-07-28T16:25:54.227Z,1.13
2017-07-28T16:28:21.298Z,1.00
2017-07-28T16:30:47.583Z,1.10
2017-07-28T16:33:13.863Z,1.30
2017-07-28T16:35:40.152Z,1.10
2017-07-28T16:38:06.446Z,0.80
2017-07-28T16:40:32.734Z,1.27
2017-07-28T16:42:59.018Z,1.00
2017-07-28T16:45:25.298Z,1.10
2017-07-28T16:47:51.562Z,1.30
2017-07-28T16:50:17.814Z,1.23
2017-07-28T16:52:44.838Z,1.10
2017-07-28T16:55:11.118Z,1.97
2017-07-28T16:57:37.374Z,1.13
2017-07-28T17:00:03.666Z,1.40
2017-07-28T17:02:29.953Z,1.13
2017-07-28T17:04:56.553Z,1.30
2017-07-28T17:07:23.052Z,1.40
2017-07-28T17:09:49.905Z,1.17
2017-07-28T17:12:16.286Z,1.13
2017-07-28T17:14:42.626Z,1.13
2017-07-28T17:17:08.894Z,0.60
2017-07-28T17:19:35.155Z,1.40
2017-07-28T17:22:01.443Z,1.00
2017-07-28T17:24:27.734Z,1.23
2017-07-28T17:26:54.002Z,1.20
2017-07-28T17:29:20.301Z,1.37
2017-07-28T17:31:46.595Z,0.87
2017-07-28T17:34:12.907Z,1.00
2017-07-28T17:36:40.138Z,0.93
2017-07-28T17:39:06.480Z,1.20
2017-07-28T17:41:32.766Z,1.30
2017-07-28T17:43:59.041Z,1.17
2017-07-28T17:46:25.302Z,1.13
2017-07-28T17:48:51.570Z,1.20
2017-07-28T17:51:17.854Z,1.10
2017-07-28T17:53:44.130Z,1.00
2017-07-28T17:56:10.373Z,1.13
2017-07-28T17:58:36.674Z,1.10
2017-07-28T18:01:03.002Z,1.50
2017-07-28T18:03:29.298Z,1.03
2017-07-28T18:05:55.630Z,1.37
2017-07-28T18:08:21.939Z,0.97
2017-07-28T18:10:48.202Z,1.47
2017-07-28T18:13:14.499Z,1.17
2017-07-28T18:15:40.802Z,1.40
2017-07-28T18:18:07.090Z,1.90
2017-07-28T18:20:33.434Z,1.10
2017-07-28T18:22:59.729Z,1.10
2017-07-28T18:25:26.002Z,1.20
2017-07-28T18:27:52.368Z,1.30
2017-07-28T18:30:18.643Z,1.63
2017-07-28T18:32:44.927Z,1.10
2017-07-28T18:35:11.237Z,1.80
2017-07-28T18:37:37.539Z,1.40
2017-07-28T18:40:03.902Z,1.00
2017-07-28T18:42:30.293Z,1.60
2017-07-28T18:44:56.574Z,1.50
2017-07-28T18:47:22.907Z,1.37
2017-07-28T18:49:50.338Z,1.70
2017-07-28T18:52:16.669Z,1.33
2017-07-28T18:54:42.947Z,1.50
2017-07-28T18:57:09.264Z,1.40
2017-07-28T18:59:35.562Z,1.70
2017-07-28T19:02:02.791Z,1.30
2017-07-28T19:04:29.244Z,1.83
2017-07-28T19:06:55.974Z,1.60
2017-07-28T19:09:23.251Z,1.37
2017-07-28T19:11:49.830Z,1.70
2017-07-28T19:14:16.565Z,1.50
2017-07-28T19:16:43.276Z,1.60
2017-07-28T19:19:09.803Z,1.50
2017-07-28T19:21:36.379Z,1.60
2017-07-28T19:24:02.678Z,1.77
2017-07-28T19:26:29.266Z,1.97
2017-07-28T19:28:55.849Z,1.40
2017-07-28T19:31:22.345Z,2.47
2017-07-28T19:33:49.612Z,2.20
2017-07-28T19:36:16.894Z,2.37
2017-07-28T19:38:44.719Z,1.93
2017-07-28T19:41:11.712Z,2.00
2017-07-28T19:43:38.298Z,1.97
2017-07-28T19:46:05.594Z,1.70
2017-07-28T19:48:32.215Z,3.00
2017-07-28T19:50:58.782Z,2.00
2017-07-28T19:53:25.472Z,2.60
2017-07-28T19:55:52.048Z,2.03
2017-07-28T19:58:19.079Z,1.97
2017-07-28T20:00:45.835Z,2.33
2017-07-28T20:03:12.660Z,2.60
2017-07-28T20:05:39.965Z,3.67
2017-07-28T20:08:07.316Z,2.40
2017-07-28T20:10:35.720Z,2.10
2017-07-28T20:13:02.563Z,2.27
2017-07-28T20:15:29.449Z,2.43
2017-07-28T20:17:56.549Z,2.30
2017-07-28T20:20:24.072Z,2.57
2017-07-28T20:22:51.241Z,2.47
2017-07-28T20:25:18.155Z,2.70
2017-07-28T20:27:45.012Z,2.00
2017-07-28T20:30:13.127Z,2.40
2017-07-28T20:32:39.882Z,2.40
2017-07-28T20:35:06.439Z,2.27
2017-07-28T20:37:33.663Z,2.10
2017-07-28T20:40:00.161Z,2.50
2017-07-28T20:42:26.915Z,2.00
2017-07-28T20:44:53.678Z,1.90
2017-07-28T20:47:20.225Z,2.50
2017-07-28T20:49:46.758Z,2.60
2017-07-28T20:52:13.351Z,2.27
2017-07-28T20:54:39.943Z,2.10
2017-07-28T20:57:06.343Z,2.53
2017-07-28T20:59:32.725Z,1.90
2017-07-28T21:01:59.219Z,2.97
2017-07-28T21:04:25.911Z,2.27
2017-07-28T21:06:52.632Z,2.50
2017-07-28T21:09:19.228Z,2.87
2017-07-28T21:11:45.654Z,2.50
2017-07-28T21:14:16.380Z,1.90
2017-07-28T21:16:43.088Z,2.17
2017-07-28T21:19:09.552Z,2.67
2017-07-28T21:21:36.695Z,2.23
2017-07-28T21:24:03.083Z,2.50
2017-07-28T21:26:29.452Z,2.27
2017-07-28T21:28:55.814Z,2.50
2017-07-28T21:31:22.211Z,2.80
2017-07-28T21:33:48.643Z,2.10
2017-07-28T21:36:15.031Z,3.10
2017-07-28T21:38:41.411Z,2.20
2017-07-28T21:41:07.787Z,2.30
2017-07-28T21:43:34.159Z,2.60
2017-07-28T21:46:00.527Z,2.93
2017-07-28T21:48:26.899Z,2.60
2017-07-28T21:50:53.339Z,2.30
2017-07-28T21:53:19.743Z,2.67
2017-07-28T21:55:46.111Z,2.53
2017-07-28T21:58:13.227Z,3.00
2017-07-28T22:00:39.658Z,3.47
2017-07-28T22:03:06.078Z,2.80
2017-07-28T22:05:32.483Z,2.67
2017-07-28T22:07:59.649Z,2.63
2017-07-28T22:10:26.064Z,2.50
2017-07-28T22:12:52.475Z,2.90
2017-07-28T22:15:18.846Z,2.77
2017-07-28T22:17:45.263Z,3.10
2017-07-28T22:20:11.673Z,3.00
2017-07-28T22:22:38.063Z,3.07
2017-07-28T22:25:05.301Z,2.60
2017-07-28T22:27:31.759Z,3.50
2017-07-28T22:29:58.499Z,3.00
2017-07-28T22:32:24.903Z,2.83
2017-07-28T22:34:51.319Z,3.17
2017-07-28T22:37:17.720Z,3.07
2017-07-28T22:39:44.103Z,2.97
2017-07-28T22:42:10.475Z,2.60
2017-07-28T22:44:36.899Z,2.57
2017-07-28T22:47:04.012Z,2.93
2017-07-28T22:49:30.372Z,2.43
2017-07-28T22:51:56.778Z,3.00
2017-07-28T22:54:23.123Z,2.60
2017-07-28T22:56:49.488Z,2.83
2017-07-28T22:59:16.871Z,3.00
2017-07-28T23:01:43.279Z,2.80
2017-07-28T23:04:10.396Z,2.87
2017-07-28T23:06:36.844Z,3.30
2017-07-28T23:09:03.371Z,2.63
2017-07-28T23:11:29.799Z,2.87
2017-07-28T23:13:56.179Z,2.83
2017-07-28T23:16:23.323Z,2.57
2017-07-28T23:18:49.694Z,2.33
2017-07-28T23:21:16.079Z,2.73
2017-07-28T23:23:42.460Z,2.50
2017-07-28T23:26:09.590Z,3.07
2017-07-28T23:28:35.998Z,3.20
2017-07-28T23:31:03.086Z,3.33
2017-07-28T23:33:29.460Z,3.03
2017-07-28T23:35:55.871Z,3.43
2017-07-28T23:38:23.031Z,2.80
2017-07-28T23:40:49.423Z,3.40
2017-07-28T23:43:15.828Z,3.60
2017-07-28T23:45:42.955Z,3.80
2017-07-28T23:48:09.365Z,3.57
2017-07-28T23:50:35.760Z,3.40
2017-07-28T23:53:02.114Z,4.90
2017-07-28T23:55:28.495Z,5.00
2017-07-28T23:57:54.885Z,5.33
